Time;durP1;ratioP1;P1;durP2;ratioP2;P2;SDS_P1;SDS_P2;PMS_P1;PMS_P2;Temp;Humidity;BMP_temperature;BMP_pressure;BME280_temperature;BME280_humidity;BME280_pressure;Samples;Min_cycle;Max_cycle;Signal;HPM_P1;HPM_P2
2022/08/22 00:01:34;;;;;;;2.83;1.35;;;;;;;13.90;79.50;100315.16;4993519;28;20062;-70
2022/08/22 00:04:13;;;;;;;4.70;1.60;;;;;;;13.87;79.75;100323.97;5030175;28;20104;-70
2022/08/22 00:07:17;;;;;;;9.35;2.25;;;;;;;13.82;79.56;100333.09;4997246;28;20026;-71
2022/08/22 00:09:54;;;;;;;9.23;2.33;;;;;;;13.81;79.99;100334.22;4991001;28;20049;-70
2022/08/22 00:12:43;;;;;;;4.47;1.52;;;;;;;13.76;79.80;100326.84;5020889;28;20033;-69
2022/08/22 00:15:14;;;;;;;7.00;2.00;;;;;;;13.74;80.06;100331.81;4994751;28;20029;-71
2022/08/22 00:17:57;;;;;;;7.32;2.17;;;;;;;13.71;80.17;100326.06;5002738;28;20025;-70
2022/08/22 00:20:34;;;;;;;3.75;1.88;;;;;;;13.68;80.04;100324.75;4995367;28;20049;-70
2022/08/22 00:23:23;;;;;;;2.58;1.42;;;;;;;13.67;80.02;100312.09;5013040;28;20029;-69
2022/08/22 00:26:05;;;;;;;2.13;1.40;;;;;;;13.67;80.14;100298.34;5008915;28;20026;-71
2022/08/22 00:28:43;;;;;;;1.88;1.20;;;;;;;13.69;80.02;100298.88;5013260;28;20029;-70
2022/08/22 00:31:20;;;;;;;1.40;1.05;;;;;;;13.70;80.37;100295.03;5013589;28;20061;-73
2022/08/22 00:34:17;;;;;;;1.50;1.08;;;;;;;13.71;79.71;100301.34;5020142;28;20090;-71
2022/08/22 00:36:51;;;;;;;1.92;0.85;;;;;;;13.70;80.17;100306.03;5020838;28;20084;-71
2022/08/22 00:39:40;;;;;;;1.50;0.70;;;;;;;13.68;80.17;100313.75;5020824;28;20068;-70
2022/08/22 00:42:12;;;;;;;2.15;0.82;;;;;;;13.69;80.25;100304.38;5012563;28;20040;-71
2022/08/22 00:44:43;;;;;;;2.05;1.17;;;;;;;13.70;79.58;100295.03;5016830;28;20065;-70
2022/08/22 00:47:18;;;;;;;1.80;1.02;;;;;;;13.63;80.17;100277.25;5019229;28;20530;-71
2022/08/22 00:50:14;;;;;;;2.60;1.15;;;;;;;13.67;79.87;100278.28;5011827;28;20042;-71
2022/08/22 00:52:46;;;;;;;1.50;0.90;;;;;;;13.67;79.80;100275.53;5011793;28;20021;-71
2022/08/22 00:55:30;;;;;;;1.00;0.75;;;;;;;13.67;79.81;100283.78;4995446;28;20081;-70
2022/08/22 00:58:14;;;;;;;1.42;0.80;;;;;;;13.69;80.12;100293.38;5012657;28;20029;-70
2022/08/22 01:01:04;;;;;;;3.33;0.90;;;;;;;13.70;80.41;100291.47;5014256;28;20033;-69
2022/08/22 01:03:55;;;;;;;6.32;1.40;;;;;;;13.67;80.16;100289.28;5007947;28;20021;-69
2022/08/22 01:06:23;;;;;;;7.78;3.10;;;;;;;13.66;80.70;100296.72;5014641;28;20032;-70
2022/08/22 01:09:21;;;;;;;12.90;5.70;;;;;;;13.59;80.72;100304.47;5016768;28;20021;-70
2022/08/22 01:11:53;;;;;;;28.60;12.63;;;;;;;13.53;80.94;100300.94;5006514;28;20406;-70
2022/08/22 01:14:40;;;;;;;37.63;14.38;;;;;;;13.44;80.77;100297.19;4999315;28;20043;-70
2022/08/22 01:17:31;;;;;;;30.88;13.57;;;;;;;13.35;82.03;100305.22;5015842;28;20042;-69
2022/08/22 01:20:02;;;;;;;20.30;8.90;;;;;;;13.26;81.55;100306.94;5022646;28;20083;-69
2022/08/22 01:22:42;;;;;;;18.13;8.40;;;;;;;13.20;82.19;100297.06;5021557;28;20555;-70
2022/08/22 01:25:42;;;;;;;14.32;6.82;;;;;;;13.14;82.31;100311.97;5012645;28;20054;-71
2022/08/22 01:28:23;;;;;;;8.10;3.30;;;;;;;13.10;83.05;100314.47;4993467;28;20061;-70
2022/08/22 01:31:19;;;;;;;5.55;2.50;;;;;;;13.04;82.76;100308.19;5013073;28;20741;-70
2022/08/22 01:34:21;;;;;;;3.67;1.63;;;;;;;13.02;83.25;100291.16;5006262;28;20018;-69
2022/08/22 01:36:56;;;;;;;2.28;1.20;;;;;;;13.04;82.63;100279.91;5007536;28;20022;-70
2022/08/22 01:39:52;;;;;;;1.20;0.90;;;;;;;13.07;82.67;100266.44;5008937;28;20030;-69
2022/08/22 01:42:38;;;;;;;1.90;1.10;;;;;;;13.09;82.69;100264.22;5011466;28;20029;-70
2022/08/22 01:45:13;;;;;;;1.60;1.00;;;;;;;13.17;82.81;100262.81;5010990;28;20045;-69
2022/08/22 01:47:46;;;;;;;1.33;0.88;;;;;;;13.35;83.12;100261.28;4994931;28;20517;-69
2022/08/22 01:50:24;;;;;;;1.92;0.98;;;;;;;13.49;82.20;100249.63;4997498;28;20411;-70
2022/08/22 01:52:58;;;;;;;4.25;1.38;;;;;;;13.57;81.40;100251.75;5004385;28;20088;-69
2022/08/22 01:55:57;;;;;;;2.25;1.35;;;;;;;13.57;81.38;100257.25;5007772;28;20030;-70
2022/08/22 01:58:25;;;;;;;2.70;1.50;;;;;;;13.56;81.15;100256.41;5007168;28;20022;-70
2022/08/22 02:01:18;;;;;;;2.20;1.20;;;;;;;13.60;81.59;100259.41;4994979;28;20030;-70
2022/08/22 02:03:49;;;;;;;1.83;1.10;;;;;;;13.68;81.44;100247.78;4962473;28;20623;-70
2022/08/22 02:06:21;;;;;;;1.30;1.00;;;;;;;13.68;80.94;100236.81;5011204;28;20026;-70
2022/08/22 02:08:58;;;;;;;2.67;0.98;;;;;;;13.70;80.54;100240.06;5018669;28;20029;-70
2022/08/22 02:11:39;;;;;;;1.02;0.65;;;;;;;13.75;80.68;100250.19;5019677;28;20112;-70
2022/08/22 02:14:37;;;;;;;0.77;0.63;;;;;;;13.95;81.23;100246.38;5013002;28;20380;-70
2022/08/22 02:17:16;;;;;;;0.93;0.40;;;;;;;13.94;80.41;100239.25;5011490;28;20017;-71
2022/08/22 02:20:20;;;;;;;0.60;0.50;;;;;;;13.90;79.87;100252.78;4986851;28;1146813;-70
2022/08/22 02:22:49;;;;;;;2.28;0.57;;;;;;;13.89;80.37;100247.56;5032570;28;20543;-69
2022/08/22 02:25:27;;;;;;;1.40;0.80;;;;;;;13.84;80.18;100250.38;5033458;28;20037;-70
2022/08/22 02:28:05;;;;;;;3.25;0.50;;;;;;;13.81;80.46;100256.44;5018884;28;20022;-70
2022/08/22 02:30:49;;;;;;;2.08;0.55;;;;;;;13.81;80.70;100248.19;5039347;28;20027;-69
2022/08/22 02:33:29;;;;;;;1.20;0.70;;;;;;;13.78;80.22;100253.19;5037151;28;20040;-70
2022/08/22 02:36:14;;;;;;;2.42;0.75;;;;;;;13.75;80.72;100251.00;5033342;28;20490;-69
2022/08/22 02:38:59;;;;;;;0.75;0.50;;;;;;;13.65;80.86;100245.59;5028883;28;20029;-70
2022/08/22 02:41:44;;;;;;;1.23;0.80;;;;;;;13.55;80.86;100242.97;5032877;28;20037;-70
2022/08/22 02:44:21;;;;;;;3.55;1.08;;;;;;;13.52;80.90;100249.03;5010361;28;20028;-71
2022/08/22 02:46:59;;;;;;;3.45;1.50;;;;;;;13.54;81.08;100257.84;5030730;28;20057;-69
2022/08/22 02:49:44;;;;;;;2.63;1.33;;;;;;;13.52;81.26;100243.56;5026180;28;20033;-69
2022/08/22 02:52:37;;;;;;;6.30;2.60;;;;;;;13.47;81.67;100243.63;5039277;28;20025;-70
2022/08/22 02:55:09;;;;;;;3.10;1.88;;;;;;;13.46;80.99;100234.53;5027578;28;20040;-70
2022/08/22 02:57:45;;;;;;;4.22;2.50;;;;;;;13.46;81.26;100220.00;5013881;28;20048;-69
2022/08/22 03:00:39;;;;;;;2.72;1.73;;;;;;;13.50;81.59;100230.09;5031128;28;20018;-72
2022/08/22 03:03:20;;;;;;;3.65;1.73;;;;;;;13.54;80.92;100235.84;5048453;28;20029;-69
2022/08/22 03:05:51;;;;;;;1.70;1.20;;;;;;;13.56;80.71;100250.09;5030803;28;20099;-69
2022/08/22 03:08:16;;;;;;;2.17;1.23;;;;;;;13.57;80.65;100251.75;5032424;28;20040;-70
2022/08/22 03:10:55;;;;;;;1.83;1.15;;;;;;;13.56;81.47;100261.09;5035527;28;20025;-70
2022/08/22 03:13:34;;;;;;;2.33;1.10;;;;;;;13.52;80.56;100243.56;5030045;28;20029;-69
2022/08/22 03:16:25;;;;;;;2.33;0.90;;;;;;;13.51;81.28;100250.97;5007880;28;20124;-70
2022/08/22 03:19:15;;;;;;;1.35;0.95;;;;;;;13.47;81.14;100258.16;5009935;28;20058;-71
2022/08/22 03:21:40;;;;;;;1.40;0.90;;;;;;;13.48;81.04;100264.47;5020940;28;20075;-70
2022/08/22 03:24:15;;;;;;;3.83;1.60;;;;;;;13.49;81.61;100268.84;5011238;28;20137;-70
2022/08/22 03:26:48;;;;;;;5.07;2.40;;;;;;;13.51;81.47;100267.47;5012700;28;20045;-70
2022/08/22 03:29:27;;;;;;;3.15;1.50;;;;;;;13.51;81.52;100258.41;5013799;28;20033;-71
2022/08/22 03:32:18;;;;;;;3.35;1.50;;;;;;;13.57;81.80;100246.25;4995413;28;20034;-70
2022/08/22 03:35:07;;;;;;;1.90;1.20;;;;;;;13.54;81.37;100247.66;5011946;28;20038;-71
2022/08/22 03:37:39;;;;;;;4.13;1.05;;;;;;;13.53;81.97;100240.50;5012505;28;20042;-70
2022/08/22 03:40:48;;;;;;;1.80;1.05;;;;;;;13.53;82.06;100250.69;5002775;28;20072;-71
2022/08/22 03:43:34;;;;;;;1.20;0.90;;;;;;;13.55;81.65;100248.47;5011998;28;20480;-71
2022/08/22 03:46:11;;;;;;;2.75;1.05;;;;;;;13.82;83.34;100258.09;5012042;28;20120;-70
2022/08/22 03:49:19;;;;;;;2.38;1.00;;;;;;;14.17;82.39;100264.28;5000702;28;20036;-70
2022/08/22 03:52:10;;;;;;;3.85;0.80;;;;;;;14.34;80.69;100259.09;5026910;28;20017;-69
2022/08/22 03:54:48;;;;;;;0.90;0.63;;;;;;;14.32;80.57;100261.31;4995258;28;20010;-71
2022/08/22 03:57:34;;;;;;;1.35;0.80;;;;;;;14.33;80.02;100268.47;5005381;28;20046;-70
2022/08/22 04:00:03;;;;;;;0.95;0.70;;;;;;;14.23;79.48;100257.59;5007491;28;20042;-71
2022/08/22 04:02:52;;;;;;;1.40;0.88;;;;;;;14.13;80.15;100247.53;5014500;28;20116;-71
2022/08/22 04:05:36;;;;;;;1.77;1.20;;;;;;;14.11;79.99;100245.09;5008481;28;20092;-72
2022/08/22 04:08:13;;;;;;;3.05;1.30;;;;;;;14.14;80.23;100252.75;4999272;28;20022;-72
2022/08/22 04:11:12;;;;;;;1.85;1.13;;;;;;;14.14;80.57;100250.00;5004351;28;20091;-70
2022/08/22 04:14:14;;;;;;;2.20;1.30;;;;;;;14.14;80.05;100243.69;4996817;28;20034;-68
2022/08/22 04:17:06;;;;;;;4.45;1.42;;;;;;;14.13;80.27;100237.38;5010153;28;20078;-70
2022/08/22 04:20:07;;;;;;;4.78;2.30;;;;;;;14.10;80.22;100237.13;5013059;28;20213;-70
2022/08/22 04:22:44;;;;;;;5.18;2.28;;;;;;;14.00;80.48;100243.56;5009543;28;20021;-72
2022/08/22 04:25:34;;;;;;;5.03;2.45;;;;;;;13.98;80.77;100245.81;5011748;28;20026;-71
2022/08/22 04:28:08;;;;;;;10.95;4.28;;;;;;;13.98;80.94;100251.28;5007526;28;20560;-70
2022/08/22 04:30:39;;;;;;;8.68;4.38;;;;;;;13.95;81.43;100251.88;5014387;28;20069;-71
2022/08/22 04:33:21;;;;;;;5.28;2.92;;;;;;;13.87;81.23;100252.53;5021500;28;20028;-71
2022/08/22 04:36:09;;;;;;;5.47;2.70;;;;;;;13.82;81.31;100263.59;5003225;28;20084;-70
2022/08/22 04:38:52;;;;;;;6.47;2.75;;;;;;;13.77;81.67;100262.53;5023229;28;20079;-70
2022/08/22 04:41:48;;;;;;;4.78;2.95;;;;;;;13.79;81.94;100263.03;5016183;28;20018;-70
2022/08/22 04:44:22;;;;;;;7.97;4.18;;;;;;;13.79;82.04;100249.31;5011601;28;20040;-70
2022/08/22 04:47:04;;;;;;;8.43;3.38;;;;;;;13.86;82.39;100246.22;5001897;28;20025;-68
2022/08/22 04:49:38;;;;;;;9.43;3.90;;;;;;;13.95;82.11;100247.19;5010059;28;20022;-70
2022/08/22 04:52:17;;;;;;;6.15;3.45;;;;;;;14.01;82.20;100234.22;5009094;28;20041;-70
2022/08/22 04:55:20;;;;;;;11.07;3.10;;;;;;;14.18;81.44;100232.91;5008625;28;20400;-70
2022/08/22 04:58:04;;;;;;;7.90;3.65;;;;;;;14.19;81.69;100223.53;5008412;28;20025;-69
2022/08/22 05:01:13;;;;;;;6.83;3.13;;;;;;;14.20;81.57;100225.19;5009507;28;20034;-70
2022/08/22 05:03:57;;;;;;;7.88;4.28;;;;;;;14.37;81.28;100214.50;4993116;28;20365;-70
2022/08/22 05:06:26;;;;;;;14.52;3.72;;;;;;;14.59;80.70;100213.09;5003247;28;20048;-67
2022/08/22 05:08:52;;;;;;;4.65;2.60;;;;;;;14.97;80.65;100221.34;5010674;28;20472;-70
2022/08/22 05:11:21;;;;;;;5.38;2.65;;;;;;;15.25;79.89;100226.94;4989776;28;20045;-70
2022/08/22 05:13:53;;;;;;;3.63;2.13;;;;;;;15.51;78.57;100214.31;5026005;28;20022;-70
2022/08/22 05:16:26;;;;;;;7.53;2.92;;;;;;;15.68;77.72;100232.19;5016717;28;20092;-69
2022/08/22 05:19:18;;;;;;;7.32;2.05;;;;;;;15.73;77.57;100234.88;5004758;28;20493;-69
2022/08/22 05:21:46;;;;;;;3.65;1.60;;;;;;;15.74;77.58;100239.28;5010450;28;20037;-70
2022/08/22 05:24:45;;;;;;;3.58;2.22;;;;;;;15.75;77.10;100229.84;5008006;28;20022;-70
2022/08/22 05:27:20;;;;;;;5.43;2.60;;;;;;;15.72;77.00;100224.97;4998048;28;20380;-70
2022/08/22 05:29:49;;;;;;;6.50;2.80;;;;;;;15.64;76.73;100222.94;5004086;28;20025;-70
2022/08/22 05:32:26;;;;;;;4.72;2.55;;;;;;;15.67;76.69;100216.81;4989455;28;20034;-71
2022/08/22 05:34:57;;;;;;;6.60;2.30;;;;;;;15.81;76.84;100217.66;4991654;28;20766;-71
2022/08/22 05:37:33;;;;;;;3.95;2.08;;;;;;;15.97;76.20;100220.09;5010791;28;20403;-70
2022/08/22 05:39:59;;;;;;;3.92;1.70;;;;;;;16.01;76.30;100219.16;5029047;28;20116;-70
2022/08/22 05:42:35;;;;;;;2.33;1.50;;;;;;;16.18;75.89;100215.78;5004503;28;20033;-72
2022/08/22 05:45:04;;;;;;;5.50;1.90;;;;;;;16.14;75.60;100214.75;5001939;28;20033;-72
2022/08/22 05:47:40;;;;;;;3.00;1.77;;;;;;;16.03;76.09;100218.84;5009828;28;20026;-72
2022/08/22 05:50:07;;;;;;;2.85;1.55;;;;;;;15.93;75.95;100213.53;5002718;28;20078;-71
2022/08/22 05:53:25;;;;;;;5.85;2.25;;;;;;;15.81;76.25;100216.81;4990250;28;20388;-70
2022/08/22 05:56:06;;;;;;;2.97;1.92;;;;;;;15.74;76.39;100214.47;4959041;28;20029;-69
2022/08/22 05:58:38;;;;;;;5.22;2.33;;;;;;;15.80;76.66;100210.50;5008785;28;20133;-70
2022/08/22 06:01:22;;;;;;;5.25;2.30;;;;;;;15.86;76.02;100219.50;5005575;28;20068;-70
2022/08/22 06:04:10;;;;;;;4.13;1.83;;;;;;;15.89;76.01;100218.88;5009229;28;20028;-70
2022/08/22 06:06:46;;;;;;;2.83;2.00;;;;;;;15.92;76.15;100214.69;4988692;28;20120;-71
2022/08/22 06:09:29;;;;;;;6.70;2.50;;;;;;;15.90;75.71;100203.13;5012892;28;20085;-70
2022/08/22 06:12:04;;;;;;;7.72;3.13;;;;;;;15.92;75.41;100211.94;5006720;28;20034;-70
2022/08/22 06:14:58;;;;;;;7.85;2.90;;;;;;;15.91;75.66;100216.63;5010660;28;20365;-70
2022/08/22 06:17:30;;;;;;;9.63;3.77;;;;;;;15.84;75.13;100208.78;5008709;28;20033;-71
2022/08/22 06:19:57;;;;;;;4.90;2.67;;;;;;;15.85;75.57;100207.63;4994324;28;20077;-71
2022/08/22 06:22:30;;;;;;;6.97;3.10;;;;;;;15.92;75.54;100206.41;5007835;28;20048;-72
2022/08/22 06:25:07;;;;;;;8.40;3.83;;;;;;;15.96;75.76;100215.69;5009972;28;20026;-73
2022/08/22 06:27:34;;;;;;;11.38;4.32;;;;;;;15.98;75.52;100211.50;5009070;28;20026;-71
2022/08/22 06:30:02;;;;;;;6.90;3.00;;;;;;;16.08;75.57;100216.00;5009118;28;20053;-72
2022/08/22 06:32:33;;;;;;;6.10;2.75;;;;;;;16.13;75.22;100207.59;5004743;28;20034;-70
2022/08/22 06:35:03;;;;;;;4.32;2.75;;;;;;;16.17;75.35;100205.06;4997951;28;20030;-70
2022/08/22 06:37:33;;;;;;;6.40;3.78;;;;;;;16.39;75.09;100209.81;5007917;28;20132;-75
2022/08/22 06:40:01;;;;;;;5.80;3.15;;;;;;;16.58;75.14;100207.69;5017709;28;20105;-74
2022/08/22 06:42:39;;;;;;;4.00;2.60;;;;;;;16.94;74.05;100214.34;5008978;28;20022;-73
2022/08/22 06:45:18;;;;;;;4.22;2.78;;;;;;;17.21;73.12;100229.97;4998546;28;20018;-70
2022/08/22 06:47:52;;;;;;;6.28;3.42;;;;;;;17.25;72.51;100235.69;5009119;28;20033;-70
2022/08/22 06:50:33;;;;;;;9.88;3.25;;;;;;;17.06;73.12;100233.13;5011870;28;20025;-72
2022/08/22 06:53:18;;;;;;;5.00;3.20;;;;;;;16.81;73.94;100232.59;5020829;28;20071;-71
2022/08/22 06:55:53;;;;;;;9.82;3.53;;;;;;;16.68;74.47;100233.44;5009356;28;20030;-71
2022/08/22 06:58:27;;;;;;;5.40;3.67;;;;;;;16.62;75.13;100240.19;4994429;28;20033;-69
2022/08/22 07:01:01;;;;;;;6.95;3.10;;;;;;;16.67;75.24;100240.09;5010572;28;20076;-70
2022/08/22 07:03:35;;;;;;;5.32;3.03;;;;;;;16.73;74.58;100230.56;5013956;28;20046;-71
2022/08/22 07:06:01;;;;;;;4.07;2.70;;;;;;;16.75;74.75;100239.38;5014533;28;20037;-71
2022/08/22 07:08:30;;;;;;;3.78;2.47;;;;;;;16.83;74.73;100237.78;4990157;28;20041;-70
2022/08/22 07:11:14;;;;;;;2.53;1.75;;;;;;;17.03;74.39;100237.31;5011371;28;20498;-71
2022/08/22 07:13:44;;;;;;;2.70;1.90;;;;;;;17.17;74.37;100234.50;5017729;28;20022;-70
2022/08/22 07:16:09;;;;;;;5.45;2.78;;;;;;;17.35;73.36;100234.63;5011215;28;20275;-71
2022/08/22 07:18:46;;;;;;;2.97;1.75;;;;;;;17.55;73.15;100228.53;5013884;28;20488;-71
2022/08/22 07:21:23;;;;;;;4.68;2.40;;;;;;;17.71;73.42;100219.81;5016349;28;20036;-70
2022/08/22 07:23:50;;;;;;;6.80;3.20;;;;;;;17.76;73.03;100220.50;5007442;28;20029;-69
2022/08/22 07:26:33;;;;;;;4.15;2.47;;;;;;;17.84;72.31;100224.41;4991599;28;20034;-71
2022/08/22 07:29:12;;;;;;;6.80;3.92;;;;;;;17.77;72.41;100224.06;5003591;28;20030;-71
2022/08/22 07:31:48;;;;;;;6.10;2.83;;;;;;;17.39;74.15;100224.53;5005313;28;20026;-72
2022/08/22 07:34:21;;;;;;;11.27;4.32;;;;;;;17.01;75.46;100219.44;5007990;28;20064;-71
2022/08/22 07:37:29;;;;;;;13.32;4.88;;;;;;;16.74;77.36;100221.16;5012698;28;20419;-72
2022/08/22 07:40:08;;;;;;;8.35;4.40;;;;;;;16.56;78.01;100215.47;5005859;28;20034;-71
2022/08/22 07:43:07;;;;;;;8.90;4.10;;;;;;;16.44;78.66;100201.44;5012891;28;20154;-73
2022/08/22 07:45:53;;;;;;;6.63;3.28;;;;;;;16.43;79.26;100205.31;4992321;28;20097;-74
2022/08/22 07:48:22;;;;;;;5.68;2.80;;;;;;;16.58;78.84;100212.41;5004970;28;20025;-73
2022/08/22 07:50:55;;;;;;;5.32;3.15;;;;;;;16.79;78.30;100220.22;5010436;28;20026;-73
2022/08/22 07:53:46;;;;;;;7.13;3.72;;;;;;;16.93;78.54;100213.53;4993895;28;20030;-73
2022/08/22 07:56:20;;;;;;;9.50;3.65;;;;;;;17.10;77.98;100203.75;5000037;28;20041;-74
2022/08/22 07:58:52;;;;;;;8.73;3.88;;;;;;;17.45;77.67;100206.72;5010462;28;20021;-73
2022/08/22 08:01:20;;;;;;;8.85;3.05;;;;;;;17.53;77.12;100200.38;5012314;28;20026;-72
2022/08/22 08:03:54;;;;;;;5.25;3.00;;;;;;;17.86;76.72;100204.72;4996726;28;20030;-75
2022/08/22 08:06:22;;;;;;;6.00;2.65;;;;;;;18.05;75.84;100207.28;5000566;28;20037;-74
2022/08/22 08:08:52;;;;;;;7.70;3.03;;;;;;;18.23;75.35;100219.19;5000888;28;20088;-74
2022/08/22 08:11:19;;;;;;;8.23;2.88;;;;;;;18.18;75.67;100211.88;4982654;28;20014;-75
2022/08/22 08:13:51;;;;;;;7.43;2.42;;;;;;;18.13;75.90;100214.78;4994522;28;20026;-74
2022/08/22 08:16:21;;;;;;;6.38;3.20;;;;;;;18.39;75.75;100211.25;5012485;28;20101;-77
2022/08/22 08:18:50;;;;;;;4.68;2.28;;;;;;;18.88;74.54;100208.34;4990968;28;20488;-74
2022/08/22 08:21:28;;;;;;;4.85;2.70;;;;;;;19.21;73.85;100214.16;5009367;28;20358;-74
2022/08/22 08:23:55;;;;;;;4.88;2.15;;;;;;;19.63;72.53;100208.81;5010141;28;20060;-72
2022/08/22 08:26:32;;;;;;;8.43;1.92;;;;;;;19.94;71.81;100198.59;4993965;28;20480;-73
2022/08/22 08:28:58;;;;;;;7.88;2.78;;;;;;;19.83;71.30;100204.50;5006650;28;20029;-76
2022/08/22 08:31:39;;;;;;;7.10;2.70;;;;;;;19.56;72.14;100196.59;5010672;28;20041;-74
2022/08/22 08:34:10;;;;;;;8.73;2.58;;;;;;;19.44;72.45;100189.78;4996155;28;20468;-74
2022/08/22 08:36:46;;;;;;;10.57;2.47;;;;;;;19.36;72.79;100194.22;5010642;28;20062;-74
2022/08/22 08:39:25;;;;;;;5.20;2.08;;;;;;;19.80;72.62;100190.47;5009019;28;20033;-73
2022/08/22 08:42:05;;;;;;;9.18;2.42;;;;;;;20.79;70.25;100177.25;4999225;28;20026;-74
2022/08/22 08:44:58;;;;;;;7.68;2.20;;;;;;;21.37;68.21;100188.41;5008247;28;20033;-75
2022/08/22 08:47:52;;;;;;;8.35;2.08;;;;;;;21.18;67.12;100184.19;4990853;28;20029;-74
2022/08/22 08:50:45;;;;;;;4.70;1.55;;;;;;;20.56;68.92;100185.91;4985799;28;20033;-74
2022/08/22 08:53:45;;;;;;;7.03;1.77;;;;;;;20.33;70.23;100175.13;4990006;28;20032;-75
2022/08/22 08:56:23;;;;;;;8.63;2.35;;;;;;;20.11;71.15;100164.38;5011084;28;20021;-73
2022/08/22 08:59:08;;;;;;;9.38;2.30;;;;;;;20.05;71.74;100170.09;4990739;28;20038;-73
2022/08/22 09:01:52;;;;;;;9.35;1.95;;;;;;;20.51;70.70;100164.69;5015293;28;20034;-74
2022/08/22 09:04:40;;;;;;;6.03;1.77;;;;;;;21.01;69.82;100156.59;5006856;28;20022;-74
2022/08/22 09:07:24;;;;;;;8.50;1.90;;;;;;;21.49;67.58;100163.38;5007914;28;20084;-74
2022/08/22 09:10:08;;;;;;;5.28;1.67;;;;;;;21.92;65.43;100164.81;5007019;28;20468;-74
2022/08/22 09:13:06;;;;;;;4.35;1.45;;;;;;;21.83;65.19;100152.19;5005030;28;20033;-73
2022/08/22 09:15:56;;;;;;;7.25;1.58;;;;;;;21.62;66.40;100161.44;4988754;28;20499;-71
2022/08/22 09:18:25;;;;;;;4.85;1.33;;;;;;;21.42;65.69;100169.53;4986193;28;20392;-73
2022/08/22 09:21:09;;;;;;;4.25;0.85;;;;;;;20.89;67.51;100174.84;5021254;28;20465;-73
2022/08/22 09:24:13;;;;;;;3.15;1.10;;;;;;;20.46;68.51;100170.47;5010581;28;20080;-70
2022/08/22 09:26:52;;;;;;;2.78;0.85;;;;;;;20.26;70.00;100168.50;4977804;28;20057;-71
2022/08/22 09:29:38;;;;;;;5.45;1.20;;;;;;;20.19;70.35;100169.03;4997431;28;20552;-72
2022/08/22 09:32:19;;;;;;;3.80;1.05;;;;;;;20.15;70.83;100176.41;5003471;28;20029;-70
2022/08/22 09:34:55;;;;;;;9.82;1.27;;;;;;;20.17;71.00;100174.13;5019623;28;20048;-73
2022/08/22 09:37:28;;;;;;;4.63;1.25;;;;;;;20.37;70.64;100158.59;5002901;28;20029;-72
2022/08/22 09:40:04;;;;;;;4.07;0.88;;;;;;;20.42;70.08;100166.75;5008090;28;20053;-71
2022/08/22 09:42:50;;;;;;;3.00;1.10;;;;;;;20.10;71.00;100162.72;5005460;28;20476;-74
2022/08/22 09:45:18;;;;;;;4.88;1.17;;;;;;;19.87;72.09;100163.03;4994138;28;20049;-73
2022/08/22 09:47:52;;;;;;;2.45;0.73;;;;;;;19.94;72.51;100171.63;5005598;28;20029;-72
2022/08/22 09:50:31;;;;;;;3.60;1.00;;;;;;;20.41;70.86;100165.09;5006384;28;20022;-71
2022/08/22 09:53:29;;;;;;;10.00;2.55;;;;;;;20.56;69.95;100166.47;5006672;28;20028;-71
2022/08/22 09:56:09;;;;;;;2.47;0.98;;;;;;;20.48;70.32;100170.13;4934483;28;20129;-71
2022/08/22 09:59:00;;;;;;;2.83;0.80;;;;;;;20.35;70.48;100166.47;5006284;28;20032;-72
2022/08/22 10:01:40;;;;;;;5.18;1.40;;;;;;;20.28;70.49;100167.03;5006477;28;20065;-73
2022/08/22 10:04:50;;;;;;;2.95;1.20;;;;;;;20.13;70.70;100181.50;5004257;28;20022;-74
2022/08/22 10:07:15;;;;;;;3.97;0.77;;;;;;;19.96;71.49;100177.69;4998290;28;20513;-73
2022/08/22 10:09:47;;;;;;;1.77;0.80;;;;;;;19.87;71.50;100186.06;5011287;28;20026;-73
2022/08/22 10:12:19;;;;;;;4.70;0.88;;;;;;;19.78;71.91;100165.84;5017372;28;20775;-72
2022/08/22 10:15:00;;;;;;;3.13;0.75;;;;;;;19.78;71.71;100154.75;5009196;28;20028;-76
2022/08/22 10:17:40;;;;;;;5.30;1.17;;;;;;;19.64;72.35;100154.97;5019497;28;20030;-78
2022/08/22 10:20:29;;;;;;;5.75;1.13;;;;;;;19.46;73.18;100159.75;5008731;28;20374;-76
2022/08/22 10:23:00;;;;;;;3.45;0.90;;;;;;;19.01;76.03;100180.47;4998858;28;20503;-76
2022/08/22 10:25:31;;;;;;;3.58;0.90;;;;;;;18.52;79.15;100171.50;5011556;28;20030;-72
2022/08/22 10:28:13;;;;;;;9.27;1.20;;;;;;;18.52;80.74;100181.78;5013111;28;20420;-74
2022/08/22 10:31:00;;;;;;;4.97;1.20;;;;;;;18.55;81.13;100176.38;5010991;28;20061;-73
2022/08/22 10:33:32;;;;;;;6.68;1.00;;;;;;;18.52;81.03;100170.72;5025610;28;20095;-73
2022/08/22 10:36:06;;;;;;;6.78;1.10;;;;;;;18.42;82.07;100166.31;4996535;28;20021;-74
2022/08/22 10:38:46;;;;;;;2.05;0.75;;;;;;;18.38;82.79;100165.31;4995970;28;20038;-75
2022/08/22 10:41:31;;;;;;;4.03;1.00;;;;;;;18.35;83.47;100143.81;5012317;28;20029;-75
2022/08/22 10:44:11;;;;;;;3.10;0.82;;;;;;;18.36;83.78;100162.88;5011247;28;20068;-74
2022/08/22 10:46:51;;;;;;;2.72;0.70;;;;;;;18.33;83.99;100168.25;5004338;28;20473;-72
2022/08/22 10:49:29;;;;;;;3.53;0.85;;;;;;;18.26;84.44;100152.13;5009857;28;20037;-75
2022/08/22 10:52:05;;;;;;;3.20;0.80;;;;;;;18.43;84.35;100157.66;5002703;28;20038;-71
2022/08/22 10:54:37;;;;;;;4.93;1.05;;;;;;;18.62;83.33;100149.03;5005908;28;20042;-72
2022/08/22 10:57:02;;;;;;;2.83;0.90;;;;;;;18.88;82.67;100141.84;5010048;28;20030;-74
2022/08/22 11:00:02;;;;;;;3.30;0.85;;;;;;;19.22;81.85;100148.47;5016739;28;20033;-72
2022/08/22 11:02:30;;;;;;;2.50;0.70;;;;;;;19.54;79.91;100138.69;5006471;28;20026;-72
2022/08/22 11:05:27;;;;;;;3.80;0.85;;;;;;;19.66;78.55;100132.44;5005947;28;20021;-73
2022/08/22 11:08:08;;;;;;;4.22;0.85;;;;;;;19.74;77.87;100131.56;4975111;28;20037;-73
2022/08/22 11:11:27;;;;;;;1.50;0.50;;;;;;;19.55;78.35;100129.22;5003005;28;20053;-73
2022/08/22 11:14:34;;;;;;;5.80;0.70;;;;;;;19.64;78.88;100132.78;4944664;29;20031;-75
2022/08/22 11:17:05;;;;;;;3.53;1.40;;;;;;;19.57;78.81;100140.00;4947794;28;20055;-73
2022/08/22 11:19:49;;;;;;;2.05;0.88;;;;;;;19.30;80.77;100128.19;4984479;28;20042;-75
2022/08/22 11:22:21;;;;;;;0.70;0.60;;;;;;;19.08;81.94;100140.34;5013436;28;20030;-75
2022/08/22 11:24:55;;;;;;;3.55;1.02;;;;;;;18.86;83.03;100125.56;5010676;28;20533;-75
2022/08/22 11:27:26;;;;;;;;;;;;;;;18.75;83.42;100140.84;5023869;28;20038;-74
2022/08/22 11:29:54;;;;;;;6.30;1.00;;;;;;;18.68;84.86;100133.06;5008446;28;19913;-76
2022/08/22 11:32:46;;;;;;;1.15;0.90;;;;;;;18.95;84.41;100136.63;5022793;28;20038;-71
2022/08/22 11:35:32;;;;;;;8.43;1.67;;;;;;;19.10;83.55;100136.09;5005079;28;20057;-76
2022/08/22 11:38:12;;;;;;;4.70;1.15;;;;;;;19.19;82.97;100131.34;5003702;28;20038;-75
2022/08/22 11:40:46;;;;;;;2.25;1.30;;;;;;;19.60;81.48;100129.03;5007503;28;20036;-74
2022/08/22 11:43:40;;;;;;;3.80;1.40;;;;;;;19.89;80.92;100133.00;5000865;28;20695;-77
2022/08/22 11:46:30;;;;;;;5.43;1.33;;;;;;;20.03;79.02;100132.72;5003911;28;20042;-75
2022/08/22 11:49:15;;;;;;;2.85;1.45;;;;;;;20.01;79.19;100119.19;5009947;28;20028;-76
2022/08/22 11:51:56;;;;;;;4.70;1.70;;;;;;;19.85;78.98;100109.84;5008888;28;20028;-75
2022/08/22 11:54:58;;;;;;;8.73;1.23;;;;;;;19.54;79.80;100111.78;5007752;28;20034;-75
2022/08/22 11:57:44;;;;;;;4.25;1.55;;;;;;;19.28;81.87;100113.88;5017559;28;20391;-76
2022/08/22 12:00:47;;;;;;;3.47;1.20;;;;;;;19.30;82.67;100117.94;5007427;28;20033;-75
2022/08/22 12:03:48;;;;;;;10.95;1.90;;;;;;;19.11;82.58;100114.72;5016728;28;20029;-76
2022/08/22 12:06:47;;;;;;;2.97;1.33;;;;;;;18.88;84.61;100116.91;5001789;28;21060;-76
2022/08/22 12:09:50;;;;;;;2.90;1.23;;;;;;;18.59;86.46;100115.66;5007653;28;20362;-76
2022/08/22 12:12:52;;;;;;;3.40;1.40;;;;;;;18.50;87.29;100112.91;4982488;28;20030;-74
2022/08/22 12:15:45;;;;;;;3.17;1.50;;;;;;;18.56;87.32;100121.81;5007956;28;20029;-74
2022/08/22 12:18:13;;;;;;;3.20;1.42;;;;;;;18.45;88.07;100113.84;5007247;28;20468;-76
2022/08/22 12:21:02;;;;;;;5.50;2.00;;;;;;;18.44;88.91;100114.19;5007986;28;20057;-75
2022/08/22 12:23:48;;;;;;;2.85;1.60;;;;;;;18.44;89.38;100114.19;5004264;28;20499;-77
2022/08/22 12:26:32;;;;;;;5.07;1.70;;;;;;;18.23;90.46;100114.84;4993578;28;20549;-74
2022/08/22 12:29:20;;;;;;;3.28;1.80;;;;;;;18.10;92.10;100113.84;5011039;28;20038;-75